Tiempo atmosférico en la estación meteorológica de Ledesma, Salamanca (790 m.)



Fecha
DESCASC
Temp. máxima en grados centígrados (hora)
DESCASC
Temp. mínima en grados centígrados (hora)
DESCASC
Temp. media en grados centígrados
DESCASC
Racha de viento máxima en m/sg (hora)
DESCASC
Velocidad máxima media en intervalos de 10 minutos(hora)
DESCASC
Precipitaciones diarias en mm
DESCASC
Precipitaciones de 00:00 a 06:00 en mm
DESCASC
Precipitaciones de 06:00 a 12:00 en mm
DESCASC
Precipitaciones de 12:00 a 18:00 en mm
DESCASC
Precipitaciones de 18:00 a 24:00 en mm
DESCASC
18-10-2020 21.5 (15:40) 1 (08:50) 11.3 5 (20:10) 3.61 (19:50) 0 0 0 0 0
17-10-2020 19.9 (17:30) 1.1 (07:00) 10.5 6.11 (16:40) 2.78 (12:50) 0 0 0 0 0
15-10-2020 16.7 (17:10) -2.5 (-00:0) 7.1 8.06 (22:40) 5.56 (22:40) 0 0 0 0 0
14-10-2020 16.9 (17:10) 1.6 (00:00) 9.2 9.17 (16:00) 5.28 (17:20) 0 0 0 0 0
13-10-2020 20.1 (17:20) 2.6 (00:00) 11.4 10 (16:10) 6.11 (13:10) 0 0 0 0 0
12-10-2020 18.7 (18:50) 0.2 (00:00) 9.5 8.06 (00:10) 4.72 (02:10) 0 0 0 0 0
11-10-2020 16.2 (17:40) 5.9 (00:00) 11.1 11.11 (12:50) 6.11 (11:20) 0 0 0 0 0
10-10-2020 20.2 (15:10) 8.5 (00:00) 14.4 11.94 (12:20) 7.22 (14:50) 0 0 0 0 0
09-10-2020 24.6 (17:40) 5.2 (00:00) 14.9 5.28 (17:50) 3.06 (16:20) 0 0 0 0 0
08-10-2020 25.5 (17:20) 7 (00:00) 16.3 5.56 (18:50) 2.78 (18:50) 0 0 0 0 0
07-10-2020 25.7 (18:00) 5.8 (00:00) 15.8 6.11 (14:50) 3.33 (14:00) 0 0 0 0 0
06-10-2020 22.5 (18:00) 12.1 (00:00) 17.3 9.44 (12:40) 5 (12:40) 0 0 0 0 0
05-10-2020 17.6 (17:30) 8.5 (00:00) 13.1 9.17 (18:10) 5.28 (17:00) 0 0 0 0 0
04-10-2020 15.8 (15:10) 8.9 (00:00) 12.3 12.22 (12:00) 7.22 (14:50) 0.6 0 0.6 0 0
03-10-2020 15.2 (17:20) 6.6 (00:00) 10.9 11.94 (14:50) 6.94 (14:40) 0 0 0 0 0
02-10-2020 13.9 (06:10) 8.3 (00:00) 11.1 17.78 (05:50) 9.72 (03:10) 8.2 0 8 0.2 0
01-10-2020 19.2 (16:50) 9.1 (05:30) 14.2 10.56 (23:20) 6.39 (23:59) 0 0 0 0 0
30-09-2020 24.5 (16:00) 4.7 (00:00) 14.6 9.17 (17:30) 5 (17:10) 0 0 0 0 0
29-09-2020 25.4 (18:30) 7.7 (00:00) 16.5 4.44 (16:40) 2.5 (10:20) 0 0 0 0 0
28-09-2020 22.7 (16:40) 4.4 (00:00) 13.6 4.72 (22:10) 3.33 (22:10) 0 0 0 0 0
27-09-2020 21.4 (17:50) 8.7 (00:00) 15 8.33 (01:20) 4.44 (12:10) 0 0 0 0 0
26-09-2020 17.4 (17:10) 3.2 (00:00) 10.3 12.78 (18:00) 6.39 (17:40) 0 0 0 0 0
25-09-2020 16.2 (17:00) 8.1 (00:00) 12.2 11.39 (14:50) 5.83 (02:20) 0 0 0 0 0
24-09-2020 18.7 (15:00) 11.8 (00:00) 15.3 13.33 (17:30) 7.78 (16:50) 0 0 0 0 0
23-09-2020 19.2 (17:10) 14 (00:00) 16.6 8.89 (16:20) 5.28 (16:20) 1.2 0 0 1 0.2
22-09-2020 22.2 (17:40) 7.4 (00:00) 14.8 9.17 (16:00) 4.72 (17:10) 0 0 0 0 0
21-09-2020 21.6 (18:20) 7.3 (00:00) 14.5 6.67 (16:20) 3.89 (18:50) 0 0 0 0 0
20-09-2020 21.3 (17:20) 14 (00:00) 17.6 9.17 (16:50) 5.83 (17:20) 4.4 2.6 1 0.8 0

Gráficas

Temp. máximas Temp. mínimas Temp. medias Precipitaciones Rachas de viento máximas Velocidades máximas media en intervalos de 10 minutos

Datos horarios

Fecha y hora oficial Temperatura (ºC) Velocidad del viento (km/h) Dirección del viento Racha (km/h) Dirección de racha Precipitación (mm) Presión (hPa) Tendencia (hPa) Humedad (%)
2020-10-19 23:00:00 12.9 8 Sudeste 22 Sudoeste 1 -- -- 85
2020-10-19 22:00:00 13.2 7 Sur 28 Sudoeste 0.6 -- -- 83
2020-10-19 21:00:00 13.7 18 Sudoeste 35 Sudoeste 0.8 -- -- 76
2020-10-19 20:00:00 15.1 26 Sudoeste 56 Sudoeste 0.4 -- -- 65
2020-10-19 19:00:00 19.1 36 Sudoeste 54 Sudoeste 0 -- -- 39
2020-10-19 18:00:00 19.9 29 Sudoeste 49 Sur 0 -- -- 34
2020-10-19 17:00:00 19.2 29 Sudoeste 63 Sudoeste 0 -- -- 36
2020-10-19 16:00:00 20.9 30 Sudoeste 59 Sudoeste 0 -- -- 30
2020-10-19 15:00:00 21.5 30 Sudoeste 60 Sudoeste 0 -- -- 31
2020-10-19 14:00:00 22.4 32 Sudoeste 55 Sudoeste 0 -- -- 31
2020-10-19 13:00:00 21.5 30 Sudoeste 50 Sudoeste 0 -- -- 33
2020-10-19 12:00:00 19.1 12 Sudoeste 22 Sudoeste 0 -- -- 40
2020-10-19 11:00:00 15 4 Sudeste 9 Sudeste 0 -- -- 47
2020-10-19 10:00:00 6.4 0 Calma 3 Este 0 -- -- 77
2020-10-19 09:00:00 5.2 2 Sudeste 5 Sur 0 -- -- 73
2020-10-19 08:00:00 6.3 4 Sudeste 6 Sudeste 0 -- -- 66
2020-10-19 07:00:00 4.9 0 Calma 8 Sudeste 0 -- -- 71
2020-10-19 06:00:00 8.9 4 Sudeste 10 Este 0 -- -- 57
2020-10-19 05:00:00 7.6 5 Sudeste 9 Sudeste 0 -- -- 68
2020-10-19 04:00:00 9.8 5 Este 10 Este 0 -- -- 63
2020-10-19 03:00:00 8.3 4 Sudeste 6 Sudeste 0 -- -- 70
2020-10-19 02:00:00 8.7 2 Este 5 Sudeste 0 -- -- 70
2020-10-19 01:00:00 8.5 4 Sudeste 7 Sudeste 0 -- -- 71
2020-10-19 00:00:00 7.3 0 Calma 4 Sur 0 -- -- 72
2020-10-18 23:00:00 10 0 Calma 6 Sur 0 -- -- 61
2020-10-18 22:00:00 13.5 5 Este 13 Este 0 -- -- 52
2020-10-18 21:00:00 14.7 9 Este 18 Este 0 -- -- 50
2020-10-18 20:00:00 15.5 13 Nordeste 17 Nordeste 0 -- -- 49
2020-10-18 19:00:00 17.6 8 Este 10 Este 0 -- -- 42
2020-10-18 18:00:00 19.2 5 Nordeste 10 Este 0 -- -- 39
2020-10-18 17:00:00 20 3 Sudeste 12 Sudoeste 0 -- -- 33
2020-10-18 16:00:00 20.7 5 Sudoeste 14 Sudoeste 0 -- -- 31
2020-10-18 15:00:00 21 6 Sur 13 Sudoeste 0 -- -- 31
2020-10-18 14:00:00 19.5 4 Este 13 Sudeste 0 -- -- 36
2020-10-18 13:00:00 17 3 Noroeste 9 Noroeste 0 -- -- 50
2020-10-18 12:00:00 15.2 3 Oeste 6 Sudeste 0 -- -- 57
2020-10-18 11:00:00 12.1 0 Calma 8 Este 0 -- -- 68
2020-10-18 10:00:00 6.8 2 Este 5 Nordeste 0 -- -- 90
2020-10-18 09:00:00 1 3 Este 4 Este 0 -- -- 95
2020-10-18 08:00:00 1.9 2 Nordeste 3 Nordeste 0 -- -- 92
2020-10-18 07:00:00 2.2 2 Nordeste 3 Este 0 -- -- 92
2020-10-18 06:00:00 2.9 0 Calma 4 Sudeste 0 -- -- 92
2020-10-18 05:00:00 2.3 0 Calma 3 Este 0 -- -- 90
2020-10-18 04:00:00 2.4 -- -- -- -- 0 -- -- 88
2020-10-18 03:00:00 3.4 0 Calma 5 Este 0 -- -- 89
2020-10-18 02:00:00 4.4 3 Nordeste 4 Este 0 -- -- 85
2020-10-18 01:00:00 6.4 2 Sudeste 5 Sudeste 0 -- -- 81
2020-10-18 00:00:00 5.4 0 Calma 4 Sur 0 -- -- 82
2020-10-17 23:00:00 6.1 0 Calma 5 Nordeste 0 -- -- 79
2020-10-17 22:00:00 7.3 5 Nordeste 8 Norte 0 -- -- 80
2020-10-17 21:00:00 8.2 4 Norte 6 Norte 0 -- -- 73
2020-10-17 20:00:00 13.7 2 Norte 10 Noroeste 0 -- -- 52
2020-10-17 19:00:00 18.4 6 Noroeste 16 Noroeste 0 -- -- 42
2020-10-17 18:00:00 19.5 9 Noroeste 16 Oeste 0 -- -- 40
2020-10-17 17:00:00 19.3 6 Oeste 22 Sudoeste 0 -- -- 39
2020-10-17 16:00:00 18.8 8 Noroeste 19 Oeste 0 -- -- 37
2020-10-17 15:00:00 18 8 Noroeste 19 Noroeste 0 -- -- 36
2020-10-17 14:00:00 17.1 10 Oeste 20 Oeste 0 -- -- 36
2020-10-17 13:00:00 15.8 10 Oeste 17 Oeste 0 -- -- 38
2020-10-17 12:00:00 12.9 5 Sudoeste 12 Sudoeste 0 -- -- 55
2020-10-17 11:00:00 8.4 3 Sur 6 Sudeste 0 -- -- 68
2020-10-17 10:00:00 4.3 0 Calma 5 Sudeste 0 -- -- 78
2020-10-17 09:00:00 2.2 2 Sudeste 6 Sudeste 0 -- -- 78
2020-10-17 08:00:00 2.6 3 Sudeste 6 Este 0 -- -- 77
2020-10-17 07:00:00 1.1 2 Este 4 Este 0 -- -- 85
2020-10-17 06:00:00 2 0 Calma 5 Sudeste 0 -- -- 84
2020-10-17 05:00:00 2.2 0 Calma 3 Sur 0 -- -- 81
2020-10-17 04:00:00 3.1 0 Calma 4 Sudeste 0 -- -- 77
2020-10-17 03:00:00 2.9 3 Sudeste 5 Sur 0 -- -- 79
2020-10-17 02:00:00 4.9 2 Sudeste 6 Sudeste 0 -- -- 69
2020-10-17 01:00:00 6.2 5 Este 9 Este 0 -- -- 63
2020-10-17 00:00:00 3 4 Este 7 Este 0 -- -- 78
2020-10-16 23:00:00 3.6 3 Sudeste 4 Este 0 -- -- 73
2020-10-16 22:00:00 3.7 3 Nordeste 6 Nordeste 0 -- -- 73
2020-10-16 21:00:00 7 3 Norte 5 Norte 0 -- -- 62
2020-10-16 20:00:00 9.1 2 Norte 8 Noroeste 0 -- -- 55
2020-10-16 19:00:00 16 4 Noroeste 13 Noroeste 0 -- -- 38
2020-10-16 18:00:00 16.6 4 Norte 12 Nordeste 0 -- -- 36
2020-10-16 17:00:00 16.4 4 Noroeste 15 Oeste 0 -- -- 37
2020-10-16 16:00:00 15.7 4 Sur 12 Sudoeste 0 -- -- 39
2020-10-16 15:00:00 14.2 5 Sudeste 17 Sudeste 0 -- -- 43
2020-10-16 14:00:00 13.8 5 Sur 20 Este 0 -- -- 43
2020-10-16 13:00:00 12.5 10 Sudeste 23 Sudeste 0 -- -- 49
2020-10-16 12:00:00 10.7 12 Sudeste 22 Este 0 -- -- 57
2020-10-16 11:00:00 8.6 13 Sudeste 21 Sudeste 0 -- -- 65
2020-10-16 10:00:00 4.9 3 Este 9 Sudeste 0 -- -- 82
2020-10-16 09:00:00 0.2 2 Este 8 Este 0 -- -- 87
2020-10-16 08:00:00 1.4 6 Este 11 Nordeste 0 -- -- 90
2020-10-16 07:00:00 -0.3 7 Este 10 Nordeste 0 -- -- 91
2020-10-16 06:00:00 0.7 0 Calma 9 Este 0 -- -- 85
2020-10-16 05:00:00 3.2 6 Este 13 Este 0 -- -- 80
2020-10-16 04:00:00 3.8 6 Este 14 Este 0 -- -- 77
2020-10-16 03:00:00 5.4 8 Este 16 Este 0 -- -- 70
2020-10-16 02:00:00 6.1 10 Este 18 Este 0 -- -- 68
2020-10-16 01:00:00 6.9 9 Este 18 Este 0 -- -- 63
2020-10-16 00:00:00 7.6 9 Este 27 Este 0 -- -- 63
2020-10-15 23:00:00 8.4 15 Este 29 Este 0 -- -- 65
2020-10-15 22:00:00 9.3 15 Nordeste 21 Nordeste 0 -- -- 59
2020-10-15 21:00:00 10 12 Nordeste 16 Este 0 -- -- 57
2020-10-15 20:00:00 9.8 3 Nordeste 6 Nordeste 0 -- -- 63
2020-10-15 19:00:00 12.9 6 Nordeste 20 Nordeste 0 -- -- 49
2020-10-15 18:00:00 15.8 6 Nordeste 14 Norte 0 -- -- 41
2020-10-15 17:00:00 16.5 8 Norte 17 Nordeste 0 -- -- 40
2020-10-15 16:00:00 15.8 7 Nordeste 17 Norte 0 -- -- 43
2020-10-15 15:00:00 15 7 Nordeste 21 Norte 0 -- -- 44
2020-10-15 14:00:00 13.9 6 Noroeste 18 Nordeste 0 -- -- 50
2020-10-15 13:00:00 12.7 10 Este 18 Este 0 -- -- 54
2020-10-15 12:00:00 11.5 3 Sudoeste 8 Noroeste 0 -- -- 61
2020-10-15 11:00:00 8.6 0 Calma 3 Noroeste 0 -- -- 76
2020-10-15 10:00:00 3.8 2 Sudeste 3 Sudeste 0 -- -- 93
2020-10-15 09:00:00 -2.2 2 Este 3 Nordeste 0 -- -- 96
2020-10-15 08:00:00 -1.2 0 Calma 3 Sudeste 0 -- -- 95
2020-10-15 07:00:00 -1 2 Nordeste 4 Nordeste 0 -- -- 95
2020-10-15 06:00:00 -0.4 4 Nordeste 5 Nordeste 0 -- -- 94
2020-10-15 05:00:00 -0.3 3 Nordeste 6 Sudeste 0 -- -- 90
2020-10-15 04:00:00 -0.4 3 Nordeste 4 Este 0 -- -- 91
2020-10-15 03:00:00 0.7 2 Nordeste 6 Sur 0 -- -- 89
2020-10-15 02:00:00 1.3 0 Calma 7 Nordeste 0 -- -- 91
2020-10-15 01:00:00 1.8 3 Norte 5 Norte 0 -- -- 83
2020-10-15 00:00:00 4.9 0 Calma 12 Norte 0 -- -- 77
2020-10-14 23:00:00 7.7 8 Norte 14 Norte 0 -- -- 72
2020-10-14 22:00:00 8.7 4 Norte 15 Norte 0 -- -- 64
2020-10-14 21:00:00 10.6 8 Norte 19 Noroeste 0 -- -- 57
2020-10-14 20:00:00 12.7 8 Noroeste 25 Noroeste 0 -- -- 52
2020-10-14 19:00:00 15.3 14 Noroeste 33 Oeste 0 -- -- 45
2020-10-14 18:00:00 16.5 17 Noroeste 32 Noroeste 0 -- -- 44
2020-10-14 17:00:00 16.4 15 Oeste 32 Oeste 0 -- -- 44
2020-10-14 16:00:00 16 17 Oeste 33 Oeste 0 -- -- 46
2020-10-14 15:00:00 15.9 13 Oeste 26 Noroeste 0 -- -- 46
2020-10-14 14:00:00 14.3 9 Norte 24 Norte 0 -- -- 49
2020-10-14 13:00:00 13.3 11 Norte 22 Norte 0 -- -- 53
2020-10-14 12:00:00 12.1 11 Noroeste 22 Noroeste 0 -- -- 58
2020-10-14 11:00:00 10.1 8 Noroeste 18 Norte 0 -- -- 71
2020-10-14 10:00:00 6.9 4 Noroeste 12 Noroeste 0 -- -- 86
2020-10-14 09:00:00 4 3 Norte 7 Noroeste 0 -- -- 93
2020-10-14 08:00:00 3.4 4 Norte 9 Norte 0 -- -- 92
2020-10-14 07:00:00 4.2 3 Noroeste 9 Norte 0 -- -- 89
2020-10-14 06:00:00 5.1 3 Noroeste 8 Norte 0 -- -- 91
2020-10-14 05:00:00 4.5 4 Norte 8 Noroeste 0 -- -- 91
2020-10-14 04:00:00 3.9 3 Noroeste 8 Noroeste 0 -- -- 96
2020-10-14 03:00:00 2 2 Norte 4 Noroeste 0 -- -- 92
2020-10-14 02:00:00 2.9 0 Calma 4 Nordeste 0 -- -- 87
2020-10-14 01:00:00 6.5 0 Calma 8 Noroeste 0 -- -- 75
2020-10-14 00:00:00 8.5 4 Noroeste 11 Noroeste 0 -- -- 74
2020-10-13 23:00:00 9.8 6 Noroeste 20 Noroeste 0 -- -- 70
2020-10-13 22:00:00 11.2 6 Norte 23 Noroeste 0 -- -- 69
2020-10-13 21:00:00 13.3 9 Noroeste 27 Noroeste 0 -- -- 65
2020-10-13 20:00:00 14.8 10 Noroeste 26 Noroeste 0 -- -- 58
2020-10-13 19:00:00 17.6 15 Noroeste 31 Noroeste 0 -- -- 54
2020-10-13 18:00:00 19.9 15 Noroeste 33 Oeste 0 -- -- 46
2020-10-13 17:00:00 19.8 18 Oeste 36 Oeste 0 -- -- 47
2020-10-13 16:00:00 19.6 17 Oeste 34 Oeste 0 -- -- 50
2020-10-13 15:00:00 19.2 14 Noroeste 30 Noroeste 0 -- -- 53
2020-10-13 14:00:00 18.1 15 Noroeste 32 Oeste 0 -- -- 62
2020-10-13 13:00:00 17.3 18 Oeste 29 Oeste 0 -- -- 68
2020-10-13 12:00:00 15 12 Noroeste 25 Noroeste 0 -- -- 80
2020-10-13 11:00:00 11.4 12 Noroeste 20 Oeste 0 -- -- 98
2020-10-13 10:00:00 -- -- -- -- -- -- -- -- --
2020-10-13 09:00:00 4.7 0 Calma 2 Sudeste 0 -- -- 96
2020-10-13 08:00:00 3.1 0 Calma 2 Nordeste 0 -- -- 96
2020-10-13 07:00:00 3 0 Calma 2 Este 0 -- -- 96
2020-10-13 06:00:00 2.8 2 Este 3 Nordeste 0 -- -- 93
2020-10-13 05:00:00 3.2 0 Calma 5 Nordeste 0 -- -- 92
2020-10-13 04:00:00 -- -- -- -- -- -- -- -- --
2020-10-13 03:00:00 3.5 0 Calma 3 Nordeste 0 -- -- 88
2020-10-13 02:00:00 4.3 0 Calma 3 Este 0 -- -- 83
2020-10-13 01:00:00 -- -- -- -- -- -- -- -- --
2020-10-13 00:00:00 5 0 Calma 3 Nordeste 0 -- -- 83
2020-10-12 23:00:00 5.2 0 Calma 4 Nordeste 0 -- -- 82
2020-10-12 22:00:00 6.4 0 Calma 3 Nordeste 0 -- -- 75
2020-10-12 21:00:00 8 3 Nordeste 5 Nordeste 0 -- -- 67
2020-10-12 20:00:00 13.7 0 Calma 6 Oeste 0 -- -- 48
2020-10-12 19:00:00 18.4 3 Sur 9 Sudoeste 0 -- -- 37
2020-10-12 18:00:00 -- -- -- -- -- -- -- -- --
2020-10-12 17:00:00 17.5 11 Nordeste 23 Nordeste 0 -- -- 37
2020-10-12 16:00:00 17 6 Nordeste 22 Nordeste 0 -- -- 38
2020-10-12 15:00:00 16.3 11 Nordeste 22 Nordeste 0 -- -- 38
2020-10-12 14:00:00 14.9 7 Nordeste 18 Este 0 -- -- 45
2020-10-12 13:00:00 13.8 10 Este 21 Este 0 -- -- 50
2020-10-12 12:00:00 12.5 8 Este 16 Este 0 -- -- 56
2020-10-12 11:00:00 10.3 5 Sudeste 11 Sudeste 0 -- -- 69
2020-10-12 10:00:00 7 3 Este 8 Este 0 -- -- 82
2020-10-12 09:00:00 1.4 5 Este 8 Sudeste 0 -- -- 96
2020-10-12 08:00:00 0.9 0 Calma 8 Este 0 -- -- 89
2020-10-12 07:00:00 1.5 4 Este 13 Este 0 -- -- 86
2020-10-12 06:00:00 4.3 11 Nordeste 17 Este 0 -- -- 83
2020-10-12 05:00:00 4.7 13 Este 17 Este 0 -- -- 81
2020-10-12 04:00:00 -- -- -- -- -- -- -- -- --
2020-10-12 03:00:00 6.6 14 Este 28 Este 0 -- -- 71
2020-10-12 02:00:00 6.8 15 Este 23 Nordeste 0 -- -- 70
2020-10-12 01:00:00 7.4 13 Este 29 Nordeste 0 -- -- 67
2020-10-12 00:00:00 8.3 15 Este 31 Nordeste 0 -- -- 63
2020-10-11 23:00:00 9 20 Nordeste 32 Nordeste 0 -- -- 61
2020-10-11 22:00:00 10.3 16 Nordeste 28 Nordeste 0 -- -- 55
2020-10-11 21:00:00 -- -- -- -- -- -- -- -- --
2020-10-11 20:00:00 -- -- -- -- -- -- -- -- --
2020-10-11 19:00:00 15.3 10 Este 30 Nordeste 0 -- -- 41
2020-10-11 18:00:00 15.9 16 Nordeste 31 Nordeste 0 -- -- 41
2020-10-11 17:00:00 16 18 Nordeste 31 Nordeste 0 -- -- 43
2020-10-11 16:00:00 15.9 17 Nordeste 33 Nordeste 0 -- -- 42
2020-10-11 15:00:00 15.3 17 Nordeste 34 Nordeste 0 -- -- 46
2020-10-11 14:00:00 13.8 18 Este 33 Nordeste 0 -- -- 53
2020-10-11 13:00:00 13.1 20 Este 40 Sudeste 0 -- -- 54
2020-10-11 12:00:00 12 18 Este 35 Este 0 -- -- 59
2020-10-11 11:00:00 10.5 21 Este 31 Este 0 -- -- 64
2020-10-11 10:00:00 8.5 14 Este 27 Este 0 -- -- 80
2020-10-11 09:00:00 6.3 9 Este 17 Este 0 -- -- 89
2020-10-11 08:00:00 6.7 10 Este 19 Este 0 -- -- 86
2020-10-11 07:00:00 7.2 11 Este 25 Este 0 -- -- 83
2020-10-11 06:00:00 7.5 17 Este 30 Este 0 -- -- 83
2020-10-11 05:00:00 7.8 18 Este 28 Este 0 -- -- 84
2020-10-11 04:00:00 7.9 16 Este 27 Este 0 -- -- 83
2020-10-11 03:00:00 8.5 20 Este 30 Este 0 -- -- 80
2020-10-11 02:00:00 9 18 Este 27 Este 0 -- -- 78
2020-10-11 01:00:00 9.6 18 Este 25 Este 0 -- -- 75
2020-10-11 00:00:00 10.6 17 Este 31 Este 0 -- -- 69
2020-10-10 23:00:00 11.7 18 Este 27 Este 0 -- -- 64
2020-10-10 22:00:00 13.2 19 Este 31 Este 0 -- -- 63
2020-10-10 21:00:00 14.3 13 Este 18 Este 0 -- -- 62
2020-10-10 20:00:00 16 10 Este 29 Este 0 -- -- 56
2020-10-10 19:00:00 18.4 19 Nordeste 31 Nordeste 0 -- -- 50
2020-10-10 18:00:00 19.8 21 Nordeste 36 Este 0 -- -- 48
2020-10-10 17:00:00 20.2 19 Nordeste 36 Nordeste 0 -- -- 49
2020-10-10 16:00:00 20.1 22 Nordeste 33 Nordeste 0 -- -- 52
2020-10-10 15:00:00 19.9 19 Nordeste 36 Nordeste 0 -- -- 55
2020-10-10 14:00:00 19 23 Nordeste 37 Nordeste 0 -- -- 55
2020-10-10 13:00:00 17.3 25 Nordeste 43 Nordeste 0 -- -- 60
2020-10-10 12:00:00 16.3 22 Nordeste 32 Nordeste 0 -- -- 65
2020-10-10 11:00:00 14.8 17 Este 30 Este 0 -- -- 71
2020-10-10 10:00:00 12.4 12 Este 23 Este 0 -- -- 81
2020-10-10 09:00:00 8.9 6 Este 22 Este 0 -- -- 94
2020-10-10 08:00:00 9.5 12 Este 27 Este 0 -- -- 93
2020-10-10 07:00:00 9 21 Nordeste 34 Nordeste 0 -- -- 95
2020-10-10 06:00:00 9.5 23 Nordeste 32 Nordeste 0 -- -- 95
2020-10-10 05:00:00 10 15 Nordeste 25 Nordeste 0 -- -- 94
2020-10-10 04:00:00 10.7 18 Nordeste 31 Nordeste 0 -- -- 92
2020-10-10 03:00:00 11.3 20 Nordeste 30 Nordeste 0 -- -- 90
2020-10-10 02:00:00 11.7 14 Nordeste 24 Nordeste 0 -- -- 81
2020-10-10 01:00:00 9.1 4 Nordeste 8 Este 0 -- -- 83
2020-10-10 00:00:00 8.8 3 Norte 6 Nordeste 0 -- -- 84
2020-10-09 23:00:00 10.2 2 Este -- -- 0 -- -- 78
2020-10-09 22:00:00 10.6 2 Norte 6 Noroeste 0 -- -- 76
2020-10-09 21:00:00 12.5 0 Calma 6 Oeste 0 -- -- 69
2020-10-09 20:00:00 20.3 3 Oeste 12 Oeste 0 -- -- 45
2020-10-09 19:00:00 23.3 9 Oeste 18 Oeste 0 -- -- 37
2020-10-09 18:00:00 24.5 8 Oeste 19 Oeste 0 -- -- 35
2020-10-09 17:00:00 24.1 10 Oeste 19 Noroeste 0 -- -- 31
2020-10-09 16:00:00 23.8 9 Noroeste 18 Noroeste 0 -- -- 31
2020-10-09 15:00:00 22.4 9 Oeste 18 Oeste 0 -- -- 46
2020-10-09 14:00:00 21.1 9 Oeste 17 Oeste 0 -- -- 57
2020-10-09 13:00:00 20 9 Oeste 15 Oeste 0 -- -- 62
2020-10-09 12:00:00 17.9 5 Noroeste 9 Noroeste 0 -- -- 72
2020-10-09 11:00:00 15.1 2 Sudoeste 4 Sudoeste 0 -- -- 79
2020-10-09 10:00:00 11.3 0 Calma 4 Sur 0 -- -- 88
2020-10-09 09:00:00 5.7 0 Calma 4 Nordeste 0 -- -- 97
2020-10-09 08:00:00 5.8 2 Nordeste 3 Nordeste 0 -- -- 95
2020-10-09 07:00:00 6.3 0 Calma 3 Este 0 -- -- 94
2020-10-09 06:00:00 6.3 2 Este 3 Este 0 -- -- 91
2020-10-09 05:00:00 6.5 0 Calma 3 Este 0 -- -- 92
2020-10-09 04:00:00 7 2 Nordeste 4 Nordeste 0 -- -- 90
2020-10-09 03:00:00 8.4 0 Calma 5 Nordeste 0 -- -- 86
2020-10-09 02:00:00 8.7 2 Este 5 Nordeste 0 -- -- 87
2020-10-09 01:00:00 8.9 0 Calma 3 Nordeste 0 -- -- 84
2020-10-09 00:00:00 9.3 2 Este 4 Nordeste 0 -- -- 82
2020-10-08 23:00:00 10.7 2 Este 3 Este 0 -- -- 77
2020-10-08 22:00:00 11.8 2 Este 5 Nordeste 0 -- -- 72
2020-10-08 21:00:00 12.8 4 Nordeste 6 Nordeste 0 -- -- 67
2020-10-08 20:00:00 19.1 3 Norte 14 Noroeste 0 -- -- 50
2020-10-08 19:00:00 24 9 Noroeste 20 Oeste 0 -- -- 41
2020-10-08 18:00:00 24 5 Noroeste 19 Oeste 0 -- -- 39
2020-10-08 17:00:00 24.7 6 Oeste 18 Noroeste 0 -- -- 41
2020-10-08 16:00:00 24 6 Noroeste 17 Noroeste 0 -- -- 46
2020-10-08 15:00:00 22.7 5 Sur 13 Oeste 0 -- -- 49
2020-10-08 14:00:00 21 4 Noroeste 9 Noroeste 0 -- -- 54
2020-10-08 13:00:00 20.5 2 Sur 7 Sudeste 0 -- -- 56
2020-10-08 12:00:00 18.2 4 Sur 7 Sudeste 0 -- -- 70
2020-10-08 11:00:00 15.8 0 Calma 6 Nordeste 0 -- -- 81
2020-10-08 10:00:00 11.3 0 Calma 5 Este 0 -- -- 98
2020-10-08 09:00:00 7.7 0 Calma 7 Nordeste 0 -- -- 96
2020-10-08 08:00:00 7.1 3 Nordeste 5 Nordeste 0 -- -- 93
2020-10-08 07:00:00 8.6 3 Nordeste 8 Nordeste 0 -- -- 95
2020-10-08 06:00:00 7.6 0 Calma 4 Este 0 -- -- 93
2020-10-08 05:00:00 8.8 0 Calma 4 Sur 0 -- -- 90
2020-10-08 04:00:00 10 3 Este 11 Este 0 -- -- 87
2020-10-08 03:00:00 9.6 5 Este 7 Este 0 -- -- 91
2020-10-08 02:00:00 8.8 2 Nordeste 4 Nordeste 0 -- -- 90
2020-10-08 01:00:00 11.2 2 Sudeste 6 Este 0 -- -- 83
2020-10-08 00:00:00 10.8 3 Este 5 Este 0 -- -- 86
2020-10-07 23:00:00 13.4 3 Sudeste 12 Este 0 -- -- 77
2020-10-07 22:00:00 12.8 6 Nordeste 9 Nordeste 0 -- -- 81
2020-10-07 21:00:00 13.8 5 Nordeste 6 Nordeste 0 -- -- 78
2020-10-07 20:00:00 18.5 3 Nordeste 5 Nordeste 0 -- -- 61
2020-10-07 19:00:00 25.3 0 Calma 8 Sudeste 0 -- -- 42
2020-10-07 18:00:00 25.7 3 Sudoeste 12 Norte 0 -- -- 43
2020-10-07 17:00:00 24.5 3 Sudeste 16 Este 0 -- -- 47
2020-10-07 16:00:00 23.9 8 Sur 16 Sur 0 -- -- 47
2020-10-07 15:00:00 22.7 11 Nordeste 22 Este 0 -- -- 53
2020-10-07 14:00:00 21.1 12 Este 20 Sudeste 0 -- -- 56
2020-10-07 13:00:00 18.8 6 Nordeste 15 Nordeste 0 -- -- 68
2020-10-07 12:00:00 15.1 4 Sur 12 Sur 0 -- -- 83
2020-10-07 11:00:00 10.5 3 Este 10 Sur 0 -- -- 100
2020-10-07 10:00:00 8.5 5 Sudeste 10 Sudeste 0 -- -- 100
2020-10-07 09:00:00 5.9 2 Este 6 Sur 0 -- -- 100
2020-10-07 08:00:00 6 3 Nordeste 5 Sudeste 0 -- -- 97
2020-10-07 07:00:00 6.5 3 Nordeste 4 Nordeste 0 -- -- 97
2020-10-07 06:00:00 7.5 2 Norte 4 Norte 0 -- -- 97
2020-10-07 05:00:00 7.8 2 Sudeste 4 Sudeste 0 -- -- 97
2020-10-07 04:00:00 9.3 2 Este 9 Noroeste 0 -- -- 94
2020-10-07 03:00:00 10.6 3 Noroeste 9 Oeste 0 -- -- 93
2020-10-07 02:00:00 9.9 0 Calma 6 Noroeste 0 -- -- 87
2020-10-07 01:00:00 12.8 4 Noroeste 12 Noroeste 0 -- -- 89
2020-10-07 00:00:00 14 8 Noroeste 16 Oeste 0 -- -- 83
2020-10-06 23:00:00 14.5 10 Oeste 15 Noroeste 0 -- -- 78
2020-10-06 22:00:00 16 6 Oeste 17 Noroeste 0 -- -- 70
2020-10-06 21:00:00 17.3 5 Noroeste 14 Oeste 0 -- -- 60
2020-10-06 20:00:00 19.3 7 Oeste 18 Noroeste 0 -- -- 52
2020-10-06 19:00:00 21.4 14 Noroeste 27 Oeste 0 -- -- 49
2020-10-06 18:00:00 22.5 14 Noroeste 26 Noroeste 0 -- -- 51
2020-10-06 17:00:00 21.8 14 Noroeste 28 Oeste 0 -- -- 56
2020-10-06 16:00:00 20.7 12 Noroeste 24 Oeste 0 -- -- 63
2020-10-06 15:00:00 20.1 15 Oeste 29 Noroeste 0 -- -- 65
2020-10-06 14:00:00 20.5 15 Noroeste 32 Oeste 0 -- -- 65
2020-10-06 13:00:00 19.3 17 Noroeste 34 Oeste 0 -- -- 70
2020-10-06 12:00:00 18.2 14 Oeste 24 Noroeste 0 -- -- 76
2020-10-06 11:00:00 16.6 11 Oeste 24 Noroeste 0 -- -- 85
2020-10-06 10:00:00 14.3 7 Oeste 11 Oeste 0 -- -- 95
2020-10-06 09:00:00 13.2 6 Oeste 16 Oeste 0 -- -- 96
2020-10-06 08:00:00 13 9 Oeste 17 Oeste 0 -- -- 96
2020-10-06 07:00:00 12.8 9 Oeste 17 Oeste 0 -- -- 97
2020-10-06 06:00:00 12.4 6 Oeste 15 Oeste 0 -- -- 96
2020-10-06 05:00:00 12.4 6 Oeste 19 Oeste 0 -- -- 96
2020-10-06 04:00:00 12.3 10 Oeste 19 Oeste 0 -- -- 95
2020-10-06 03:00:00 12.2 8 Oeste 15 Oeste 0 -- -- 93
2020-10-06 02:00:00 12.8 6 Sudoeste 20 Oeste 0 -- -- 91
2020-10-06 01:00:00 13.3 7 Oeste 21 Oeste 0 -- -- 88
2020-10-06 00:00:00 13.5 10 Oeste 24 Oeste 0 -- -- 87
2020-10-05 23:00:00 13.6 10 Oeste 24 Oeste 0 -- -- 86
2020-10-05 22:00:00 14.5 13 Oeste 27 Oeste 0 -- -- 79
2020-10-05 21:00:00 15.2 16 Oeste 25 Oeste 0 -- -- 74
2020-10-05 20:00:00 15.7 10 Oeste 19 Oeste 0 -- -- 70
2020-10-05 19:00:00 16.1 11 Noroeste 33 Oeste 0 -- -- 66
2020-10-05 18:00:00 16.9 15 Noroeste 32 Oeste 0 -- -- 61
2020-10-05 17:00:00 16.2 19 Noroeste 32 Oeste 0 -- -- 61
2020-10-05 16:00:00 17.1 15 Noroeste 27 Noroeste 0 -- -- 57
2020-10-05 15:00:00 16.3 13 Noroeste 32 Oeste 0 -- -- 60
2020-10-05 14:00:00 16.1 16 Noroeste 31 Oeste 0 -- -- 58
2020-10-05 13:00:00 14.6 9 Oeste 24 Oeste 0 -- -- 61
2020-10-05 12:00:00 12.7 14 Oeste 25 Oeste 0 -- -- 72
2020-10-05 11:00:00 11.4 12 Oeste 22 Noroeste 0 -- -- 80
2020-10-05 10:00:00 10.2 8 Oeste 21 Oeste 0 -- -- 86
2020-10-05 09:00:00 9.2 6 Oeste 15 Oeste 0 -- -- 90
2020-10-05 08:00:00 8.9 6 Oeste 16 Oeste 0 -- -- 90
2020-10-05 07:00:00 8.9 9 Oeste 21 Oeste 0 -- -- 88
2020-10-05 06:00:00 8.6 12 Oeste 21 Oeste 0 -- -- 88
2020-10-05 05:00:00 8.8 9 Oeste 20 Oeste 0 -- -- 87
2020-10-05 04:00:00 8.9 9 Oeste 17 Oeste 0 -- -- 86
2020-10-05 03:00:00 9.1 7 Oeste 22 Oeste 0 -- -- 84
2020-10-05 02:00:00 9.9 9 Oeste 26 Noroeste 0 -- -- 78
2020-10-05 01:00:00 9.9 13 Oeste 28 Oeste 0 -- -- 75
2020-10-05 00:00:00 10.7 16 Noroeste 36 Noroeste 0 -- -- 75
2020-10-04 23:00:00 11 8 Oeste 35 Oeste 0 -- -- 77
2020-10-04 22:00:00 11.5 19 Oeste 32 Oeste 0 -- -- 74
2020-10-04 21:00:00 12.4 22 Oeste 37 Oeste 0 -- -- 69
2020-10-04 20:00:00 12.8 9 Oeste 38 Noroeste 0 -- -- 63
2020-10-04 19:00:00 13.7 19 Noroeste 36 Noroeste 0 -- -- 61
2020-10-04 18:00:00 14 14 Noroeste 35 Noroeste 0 -- -- 60
2020-10-04 17:00:00 14.9 18 Oeste 42 Oeste 0 -- -- 56
2020-10-04 16:00:00 14.7 19 Noroeste 39 Noroeste 0 -- -- 55
2020-10-04 15:00:00 15.2 22 Noroeste 44 Noroeste 0 -- -- 54
2020-10-04 14:00:00 14.1 20 Noroeste 38 Noroeste 0 -- -- 57
2020-10-04 13:00:00 13.4 19 Noroeste 37 Noroeste 0 -- -- 65
2020-10-04 12:00:00 11.5 19 Oeste 44 Oeste 0 -- -- 76
2020-10-04 11:00:00 10.9 18 Oeste 32 Oeste 0 -- -- 84
2020-10-04 10:00:00 10 13 Noroeste 42 Oeste 0 -- -- 95
2020-10-04 09:00:00 9.7 18 Oeste 43 Sudoeste 0.2 -- -- 99
2020-10-04 08:00:00 9.2 17 Sudoeste 37 Oeste 0.2 -- -- 98
2020-10-04 07:00:00 9.2 20 Oeste 36 Oeste 0.2 -- -- 96
2020-10-04 06:00:00 8.9 20 Oeste 36 Oeste 0 -- -- 93
2020-10-04 05:00:00 9 17 Sudoeste 27 Sudoeste 0 -- -- 89
2020-10-04 04:00:00 9.4 13 Oeste 30 Oeste 0 -- -- 88
2020-10-04 03:00:00 9.2 14 Sudoeste 25 Oeste 0 -- -- 87
2020-10-04 02:00:00 9.3 8 Oeste 24 Oeste 0 -- -- 86
2020-10-04 01:00:00 9.6 9 Oeste 23 Oeste 0 -- -- 83
2020-10-04 00:00:00 10.2 13 Oeste 23 Oeste 0 -- -- 79
2020-10-03 23:00:00 10.1 10 Oeste 23 Oeste 0 -- -- 79
2020-10-03 22:00:00 10 11 Oeste 32 Oeste 0 -- -- 77
2020-10-03 21:00:00 10.9 17 Oeste 31 Noroeste 0 -- -- 71
2020-10-03 20:00:00 11.6 17 Oeste 36 Oeste 0 -- -- 63
2020-10-03 19:00:00 13.9 19 Oeste 36 Oeste 0 -- -- 53
2020-10-03 18:00:00 14.6 18 Noroeste 33 Oeste 0 -- -- 48
2020-10-03 17:00:00 14 15 Noroeste 38 Noroeste 0 -- -- 50
2020-10-03 16:00:00 14.1 23 Noroeste 40 Noroeste 0 -- -- 48
2020-10-03 15:00:00 13.2 18 Noroeste 43 Oeste 0 -- -- 51
2020-10-03 14:00:00 11.5 17 Noroeste 40 Oeste 0 -- -- 56
2020-10-03 13:00:00 10.8 18 Oeste 37 Oeste 0 -- -- 66
2020-10-03 12:00:00 10.3 17 Noroeste 30 Oeste 0 -- -- 70
2020-10-03 11:00:00 9.1 18 Oeste 31 Noroeste 0 -- -- 74
2020-10-03 10:00:00 7.6 15 Oeste 27 Oeste 0 -- -- 79
2020-10-03 09:00:00 6.8 15 Oeste 28 Oeste 0 -- -- 81
2020-10-03 08:00:00 7 15 Oeste 39 Noroeste 0 -- -- 82
2020-10-03 07:00:00 7.1 14 Noroeste 36 Oeste 0 -- -- 82
2020-10-03 06:00:00 7.2 19 Noroeste 36 Noroeste 0 -- -- 81
2020-10-03 05:00:00 7.2 19 Noroeste 37 Noroeste 0 -- -- 83
2020-10-03 04:00:00 7.1 15 Oeste 32 Oeste -- -- -- 84
2020-10-03 03:00:00 7.4 14 Oeste 38 Oeste 0 -- -- 80
2020-10-03 02:00:00 7.7 15 Noroeste 34 Noroeste 0 -- -- 79
2020-10-03 01:00:00 8.1 19 Oeste 40 Oeste 0 -- -- 77
2020-10-03 00:00:00 8.6 20 Oeste 45 Noroeste 0 -- -- 73
2020-10-02 23:00:00 8.4 17 Oeste 40 Noroeste 0 -- -- 73
2020-10-02 22:00:00 8.5 19 Noroeste 33 Noroeste 0 -- -- 73
2020-10-02 21:00:00 8.5 13 Oeste 36 Noroeste 0 -- -- 71
2020-10-02 20:00:00 9 14 Noroeste 42 Noroeste 0 -- -- 68
2020-10-02 19:00:00 10.5 17 Noroeste 48 Oeste 0 -- -- 66
2020-10-02 18:00:00 11.6 19 Noroeste 47 Oeste 0 -- -- 63
2020-10-02 17:00:00 11.2 27 Noroeste 50 Oeste 0 -- -- 61
2020-10-02 16:00:00 10.1 20 Noroeste 53 Noroeste 0.2 -- -- 71
2020-10-02 15:00:00 11.3 26 Noroeste 55 Noroeste 0 -- -- 57
2020-10-02 14:00:00 10.9 26 Noroeste 49 Noroeste 0 -- -- 61
2020-10-02 13:00:00 10.2 22 Noroeste 55 Noroeste 0 -- -- 67
2020-10-02 12:00:00 10.2 24 Noroeste 54 Noroeste 0 -- -- 77
2020-10-02 11:00:00 8.8 23 Noroeste 59 Noroeste 2.6 -- -- 90
2020-10-02 10:00:00 10.6 22 Noroeste 63 Oeste 0.2 -- -- 93
2020-10-02 09:00:00 12.1 28 Oeste 62 Oeste 0.2 -- -- 91
2020-10-02 08:00:00 12.5 31 Oeste 62 Oeste 1.8 -- -- 93
2020-10-02 07:00:00 13.4 27 Oeste 55 Sudoeste 3.2 -- -- 97
2020-10-02 06:00:00 13.7 31 Oeste 64 Sudoeste 0 -- -- 93
2020-10-02 05:00:00 13.2 28 Oeste 62 Sudoeste 0 -- -- 95
2020-10-02 04:00:00 12.7 34 Sudoeste 62 Sudoeste 0 -- -- 93
2020-10-02 03:00:00 12.5 32 Sudoeste 52 Oeste 0 -- -- 87
2020-10-02 02:00:00 12.1 30 Sudoeste 52 Oeste 0 -- -- 86
2020-10-02 01:00:00 12 19 Sudoeste 40 Oeste 0 -- -- 82
2020-10-02 00:00:00 12.1 23 Oeste 38 Sudoeste 0 -- -- 79
2020-10-01 23:00:00 12.8 20 Oeste 35 Oeste 0 -- -- 72
2020-10-01 22:00:00 13.3 18 Oeste 36 Oeste 0 -- -- 69
2020-10-01 21:00:00 14.1 15 Oeste 29 Oeste 0 -- -- 66
2020-10-01 20:00:00 15.4 18 Oeste 34 Oeste 0 -- -- 60
2020-10-01 19:00:00 16.9 20 Oeste 36 Oeste 0 -- -- 54
2020-10-01 18:00:00 18.4 20 Oeste 35 Oeste 0 -- -- 49
2020-10-01 17:00:00 19.2 17 Oeste 33 Oeste 0 -- -- 45
2020-10-01 16:00:00 18.6 17 Oeste 32 Noroeste 0 -- -- 49
2020-10-01 15:00:00 17.3 16 Oeste 30 Oeste 0 -- -- 54
2020-10-01 14:00:00 16 15 Noroeste 33 Oeste 0 -- -- 58
2020-10-01 13:00:00 15.3 14 Oeste 29 Oeste 0 -- -- 66
2020-10-01 12:00:00 13.8 11 Oeste 20 Oeste 0 -- -- 77
2020-10-01 11:00:00 13.4 10 Oeste 21 Oeste 0 -- -- 81
2020-10-01 10:00:00 11.7 9 Oeste 17 Oeste 0 -- -- 91
2020-10-01 09:00:00 10.9 8 Sudoeste 19 Oeste 0 -- -- 94
2020-10-01 08:00:00 10.7 9 Sudoeste 17 Oeste 0 -- -- 91
2020-10-01 07:00:00 10.3 8 Oeste 17 Oeste 0 -- -- 89
2020-10-01 06:00:00 9.8 6 Oeste 14 Oeste 0 -- -- 90
2020-10-01 05:00:00 9.3 5 Oeste 19 Oeste 0 -- -- 89
2020-10-01 04:00:00 10.1 11 Oeste 18 Oeste 0 -- -- 87
2020-10-01 03:00:00 10.9 6 Oeste 21 Sudoeste 0 -- -- 81
2020-10-01 02:00:00 12.4 9 Oeste 19 Oeste 0 -- -- 82
2020-10-01 01:00:00 13.8 11 Oeste 27 Noroeste 0 -- -- 73
2020-10-01 00:00:00 15.2 11 Oeste 22 Oeste 0 -- -- 74
2020-09-30 23:00:00 16.1 4 Oeste 17 Noroeste 0 -- -- 65
2020-09-30 22:00:00 17.6 6 Oeste 21 Oeste 0 -- -- 61
2020-09-30 21:00:00 19.1 9 Noroeste 24 Oeste 0 -- -- 57
2020-09-30 20:00:00 21.4 14 Oeste 24 Noroeste 0 -- -- 50
2020-09-30 19:00:00 23.5 12 Oeste 26 Oeste 0 -- -- 40
2020-09-30 18:00:00 24.2 16 Oeste 33 Oeste 0 -- -- 35
2020-09-30 17:00:00 24.5 13 Oeste 28 Oeste 0 -- -- 36
2020-09-30 16:00:00 24.5 13 Oeste 27 Noroeste 0 -- -- 34
2020-09-30 15:00:00 23.7 10 Noroeste 21 Oeste 0 -- -- 38
2020-09-30 14:00:00 22.5 12 Oeste 19 Noroeste 0 -- -- 42
2020-09-30 13:00:00 20.9 7 Oeste 18 Oeste 0 -- -- 53
2020-09-30 12:00:00 18.9 5 Oeste 9 Oeste 0 -- -- 56
2020-09-30 11:00:00 15.6 3 Oeste 8 Sudoeste 0 -- -- 64
2020-09-30 10:00:00 11.7 0 Calma 3 Sudeste 0 -- -- 71
2020-09-30 09:00:00 6 0 Calma 2 Este 0 -- -- 87
2020-09-30 08:00:00 4.8 0 Calma 3 Sudeste 0 -- -- 90
2020-09-30 07:00:00 5.3 0 Calma 3 Este 0 -- -- 87
2020-09-30 06:00:00 5.5 0 Calma 2 Nordeste 0 -- -- 85
2020-09-30 05:00:00 6.6 2 Este 3 Sudeste 0 -- -- 82
2020-09-30 04:00:00 7 0 Calma 3 Sudeste 0 -- -- 80
2020-09-30 03:00:00 7 0 Calma 2 Este 0 -- -- 82
2020-09-30 02:00:00 7 0 Calma 3 Este 0 -- -- 81
2020-09-30 01:00:00 7.2 0 Calma 3 Nordeste 0 -- -- 82
2020-09-30 00:00:00 8.6 0 Calma 3 Este 0 -- -- 74
2020-09-29 23:00:00 9.5 2 Nordeste 4 Este 0 -- -- 72
2020-09-29 22:00:00 9.7 4 Nordeste 4 Nordeste 0 -- -- 70
2020-09-29 21:00:00 12.4 3 Norte 4 Nordeste 0 -- -- 61
2020-09-29 20:00:00 21 0 Calma 10 Oeste 0 -- -- 36
2020-09-29 19:00:00 24.3 6 Noroeste 14 Noroeste 0 -- -- 24
2020-09-29 18:00:00 25 6 Oeste 15 Noroeste 0 -- -- 24
2020-09-29 17:00:00 24.5 5 Noroeste 16 Oeste 0 -- -- 27
2020-09-29 16:00:00 24.3 4 Oeste 12 Oeste 0 -- -- 26
2020-09-29 15:00:00 23.1 5 Noroeste 15 Oeste 0 -- -- 28
2020-09-29 14:00:00 -- -- -- -- -- -- -- -- --
2020-09-29 13:00:00 -- -- -- -- -- -- -- -- --
2020-09-29 12:00:00 -- -- -- -- -- -- -- -- --
2020-09-29 11:00:00 -- -- -- -- -- -- -- -- --
2020-09-29 10:00:00 10.9 6 Nordeste 10 Este 0 -- -- 73
2020-09-29 09:00:00 7.9 0 Calma 10 Este 0 -- -- 76
2020-09-29 08:00:00 8.3 2 Este 14 Nordeste 0 -- -- 72
2020-09-29 07:00:00 7.7 5 Nordeste 8 Nordeste 0 -- -- 77
2020-09-29 06:00:00 8 0 Calma 2 Norte 0 -- -- 73
2020-09-29 05:00:00 10.1 0 Calma 12 Este 0 -- -- 68
2020-09-29 04:00:00 9 3 Nordeste 4 Este 0 -- -- 77
2020-09-29 03:00:00 8.2 0 Calma 4 Sudeste 0 -- -- 72
2020-09-29 02:00:00 10 2 Sudeste 5 Este 0 -- -- 68
2020-09-29 01:00:00 10.4 2 Este 8 Este 0 -- -- 63
2020-09-29 00:00:00 11.8 2 Este 10 Este 0 -- -- 58
2020-09-28 23:00:00 13.9 5 Este 17 Nordeste 0 -- -- 49
2020-09-28 22:00:00 14.1 10 Este 15 Este 0 -- -- 46
2020-09-28 21:00:00 14.6 8 Nordeste 12 Nordeste 0 -- -- 49
2020-09-28 20:00:00 17.5 9 Este 14 Este 0 -- -- 45
2020-09-28 19:00:00 20.4 9 Nordeste 13 Este 0 -- -- 39
2020-09-28 18:00:00 21.6 4 Norte 12 Nordeste 0 -- -- 37
2020-09-28 17:00:00 22.5 4 Este 11 Nordeste 0 -- -- 35
2020-09-28 16:00:00 21.8 4 Sudoeste 14 Sur 0 -- -- 36
2020-09-28 15:00:00 21.7 4 Sudoeste 14 Este 0 -- -- 40
2020-09-28 14:00:00 20.4 6 Sudeste 14 Sudeste 0 -- -- 45
2020-09-28 13:00:00 18.4 5 Sur 16 Nordeste 0 -- -- 51
2020-09-28 12:00:00 15.6 8 Este 14 Este 0 -- -- 57
2020-09-28 11:00:00 11.9 8 Nordeste 14 Nordeste 0 -- -- 72
2020-09-28 10:00:00 9.2 5 Nordeste 9 Nordeste 0 -- -- 82
2020-09-28 09:00:00 5.1 3 Nordeste 5 Norte 0 -- -- 94
2020-09-28 08:00:00 5.2 2 Nordeste 9 Este 0 -- -- 88
2020-09-28 07:00:00 6.1 3 Este 16 Este 0 -- -- 87
2020-09-28 06:00:00 7 5 Nordeste 15 Nordeste 0 -- -- 80
2020-09-28 05:00:00 7.9 11 Nordeste 16 Nordeste 0 -- -- 80
2020-09-28 04:00:00 8.8 7 Nordeste 12 Nordeste 0 -- -- 75
2020-09-28 03:00:00 6.6 0 Calma 4 Este 0 -- -- 84
2020-09-28 02:00:00 8.1 2 Sudeste 5 Este 0 -- -- 78
2020-09-28 01:00:00 8.1 0 Calma 2 Este 0 -- -- 76
2020-09-28 00:00:00 8.7 0 Calma 5 Sudeste 0 -- -- 72
2020-09-27 23:00:00 9.8 4 Este 7 Este 0 -- -- 71
2020-09-27 22:00:00 13.1 3 Sudeste 8 Este 0 -- -- 59
2020-09-27 21:00:00 14.2 9 Este 12 Este 0 -- -- 58
2020-09-27 20:00:00 17.9 7 Este 13 Este 0 -- -- 49
2020-09-27 19:00:00 20.6 4 Este 13 Nordeste 0 -- -- 43
2020-09-27 18:00:00 21.1 11 Este 19 Nordeste 0 -- -- 41
2020-09-27 17:00:00 20.9 14 Nordeste 23 Nordeste 0 -- -- 42
2020-09-27 16:00:00 20.7 4 Sudoeste 21 Nordeste 0 -- -- 45
2020-09-27 15:00:00 19.6 8 Este 21 Nordeste 0 -- -- 50
2020-09-27 14:00:00 18 10 Nordeste 23 Nordeste 0 -- -- 58
2020-09-27 13:00:00 17.5 15 Nordeste 27 Nordeste 0 -- -- 59
2020-09-27 12:00:00 16.6 16 Nordeste 24 Nordeste 0 -- -- 69
2020-09-27 11:00:00 14.3 9 Nordeste 21 Norte 0 -- -- 82
2020-09-27 10:00:00 13 8 Noroeste 16 Noroeste 0 -- -- 89
2020-09-27 09:00:00 11.2 7 Noroeste 15 Noroeste 0 -- -- 97
2020-09-27 08:00:00 11 6 Noroeste 15 Noroeste 0 -- -- 95
2020-09-27 07:00:00 11.5 9 Noroeste 21 Noroeste 0 -- -- 94
2020-09-27 06:00:00 11.7 9 Oeste 18 Oeste 0 -- -- 94
2020-09-27 05:00:00 12 7 Noroeste 26 Noroeste 0 -- -- 92
2020-09-27 04:00:00 12.3 9 Noroeste 20 Oeste 0 -- -- 92
2020-09-27 03:00:00 12.8 10 Oeste 28 Oeste 0 -- -- 91
2020-09-27 02:00:00 12.8 14 Oeste 30 Oeste 0 -- -- 91
2020-09-27 01:00:00 12.9 11 Oeste 27 Oeste 0 -- -- 89
2020-09-27 00:00:00 13.1 12 Oeste 30 Oeste 0 -- -- 86
2020-09-26 23:00:00 13.8 15 Oeste 27 Oeste 0 -- -- 83
2020-09-26 22:00:00 14.4 15 Oeste 27 Noroeste 0 -- -- 78
2020-09-26 21:00:00 14.2 10 Noroeste 32 Noroeste 0 -- -- 78
2020-09-26 20:00:00 15 20 Noroeste 39 Noroeste 0 -- -- 74
2020-09-26 19:00:00 16 21 Noroeste 46 Noroeste 0 -- -- 68
2020-09-26 18:00:00 16.6 23 Oeste 46 Oeste 0 -- -- 66
2020-09-26 17:00:00 16.9 18 Oeste 36 Oeste 0 -- -- 64
2020-09-26 16:00:00 17.2 20 Noroeste 41 Noroeste 0 -- -- 60
2020-09-26 15:00:00 16.8 16 Noroeste 34 Oeste 0 -- -- 56
2020-09-26 14:00:00 15.5 18 Oeste 32 Oeste 0 -- -- 60
2020-09-26 13:00:00 14.6 14 Oeste 24 Oeste 0 -- -- 67
2020-09-26 12:00:00 12.5 12 Oeste 24 Oeste 0 -- -- 73
2020-09-26 11:00:00 11 10 Oeste 19 Oeste 0 -- -- 77
2020-09-26 10:00:00 9 7 Oeste 13 Oeste 0 -- -- 86
2020-09-26 09:00:00 6.1 0 Calma 3 Sur 0 -- -- 97
2020-09-26 08:00:00 4.6 0 Calma 3 Noroeste 0 -- -- 97
2020-09-26 07:00:00 4.1 0 Calma 3 Sudeste 0 -- -- 96
2020-09-26 06:00:00 4.1 0 Calma 4 Norte 0 -- -- 96
2020-09-26 05:00:00 3.9 0 Calma 5 Noroeste 0 -- -- 94
2020-09-26 04:00:00 4.2 3 Nordeste 6 Nordeste 0 -- -- 91
2020-09-26 03:00:00 5.3 0 Calma 8 Nordeste 0 -- -- 88
2020-09-26 02:00:00 6.1 0 Calma 9 Norte 0 -- -- 79
2020-09-26 01:00:00 8.6 5 Norte 13 Norte 0 -- -- 74
2020-09-26 00:00:00 8.9 3 Noroeste 12 Norte 0 -- -- 71
2020-09-25 23:00:00 9.9 6 Norte 17 Norte 0 -- -- 67
2020-09-25 22:00:00 10.9 6 Norte 20 Noroeste 0 -- -- 63
2020-09-25 21:00:00 12.1 10 Norte 21 Norte 0 -- -- 57
2020-09-25 20:00:00 14.3 12 Noroeste 30 Noroeste 0 -- -- 50
2020-09-25 19:00:00 15.8 15 Norte 31 Noroeste 0 -- -- 45
2020-09-25 18:00:00 16.1 13 Noroeste 32 Norte 0 -- -- 46
2020-09-25 17:00:00 16.2 15 Noroeste 34 Oeste 0 -- -- 48
2020-09-25 16:00:00 15.4 16 Noroeste 41 Noroeste 0 -- -- 51
2020-09-25 15:00:00 15.8 17 Noroeste 41 Oeste 0 -- -- 51
2020-09-25 14:00:00 14.4 16 Noroeste 36 Noroeste 0 -- -- 57
2020-09-25 13:00:00 13 14 Noroeste 37 Noroeste 0 -- -- 59
2020-09-25 12:00:00 12.8 19 Noroeste 38 Noroeste 0 -- -- 61
2020-09-25 11:00:00 10.8 15 Noroeste 35 Oeste 0 -- -- 69
2020-09-25 10:00:00 9.9 13 Noroeste 35 Oeste 0 -- -- 74
2020-09-25 09:00:00 8.9 14 Noroeste 36 Noroeste 0 -- -- 78
2020-09-25 08:00:00 8.2 11 Noroeste 36 Norte 0 -- -- 80
2020-09-25 07:00:00 8.6 17 Noroeste 36 Oeste 0 -- -- 77
2020-09-25 06:00:00 9.2 14 Noroeste 39 Oeste 0 -- -- 76
2020-09-25 05:00:00 9.7 18 Noroeste 35 Noroeste 0 -- -- 82
2020-09-25 04:00:00 10 10 Noroeste 31 Noroeste 0 -- -- 81
2020-09-25 03:00:00 10.8 11 Noroeste 35 Noroeste 0 -- -- 82
2020-09-25 02:00:00 11.8 13 Oeste 34 Noroeste 0 -- -- 77
2020-09-25 01:00:00 11.7 9 Oeste 35 Oeste 0 -- -- 78
2020-09-25 00:00:00 12.1 17 Oeste 43 Sudoeste 0 -- -- 74
2020-09-24 23:00:00 12.7 18 Oeste 34 Oeste 0 -- -- 74
2020-09-24 22:00:00 13.6 13 Oeste 36 Sudoeste 0 -- -- 70
2020-09-24 21:00:00 14.4 19 Oeste 38 Noroeste 0 -- -- 64
2020-09-24 20:00:00 15.6 20 Oeste 41 Noroeste 0 -- -- 55
2020-09-24 19:00:00 16.7 22 Oeste 42 Oeste 0 -- -- 50
2020-09-24 18:00:00 18 22 Oeste 48 Oeste 0 -- -- 50
2020-09-24 17:00:00 18.7 26 Oeste 44 Oeste 0 -- -- 48
2020-09-24 16:00:00 17.9 25 Oeste 45 Oeste 0 -- -- 59
2020-09-24 15:00:00 18.7 22 Oeste 42 Noroeste 0 -- -- 56
2020-09-24 14:00:00 17.1 19 Oeste 39 Oeste 0 -- -- 66
2020-09-24 13:00:00 16 21 Oeste 37 Oeste 0 -- -- 74
2020-09-24 12:00:00 15.2 18 Oeste 32 Oeste 0 -- -- 80
2020-09-24 11:00:00 13.9 12 Oeste 23 Sudoeste 0 -- -- 84
2020-09-24 10:00:00 12.6 9 Oeste 18 Oeste 0 -- -- 93
2020-09-24 09:00:00 11.8 8 Oeste 16 Oeste 0 -- -- 95
2020-09-24 08:00:00 12.3 6 Oeste 12 Oeste 0 -- -- 95
2020-09-24 07:00:00 12.5 4 Noroeste 11 Oeste 0 -- -- 94
2020-09-24 06:00:00 13 5 Oeste 18 Oeste 0 -- -- 93
2020-09-24 05:00:00 13.2 10 Noroeste 19 Noroeste 0 -- -- 91
2020-09-24 04:00:00 13.7 7 Oeste 18 Oeste 0 -- -- 92
2020-09-24 03:00:00 14 9 Oeste 17 Oeste 0 -- -- 92
2020-09-24 02:00:00 14.4 7 Oeste 15 Oeste 0 -- -- 90
2020-09-24 01:00:00 14.4 6 Oeste 13 Oeste 0 -- -- 88
2020-09-24 00:00:00 14.6 5 Sudoeste 12 Oeste 0 -- -- 82
2020-09-23 23:00:00 15.4 5 Sudoeste 20 Oeste 0 -- -- 77
2020-09-23 22:00:00 15.8 12 Oeste 21 Oeste 0 -- -- 74
2020-09-23 21:00:00 16.3 8 Oeste 21 Oeste 0 -- -- 73
2020-09-23 20:00:00 17.6 13 Oeste 28 Oeste 0 -- -- 70
2020-09-23 19:00:00 18.3 13 Oeste 29 Oeste 0.2 -- -- 74
2020-09-23 18:00:00 18.8 12 Oeste 30 Oeste 0 -- -- 74
2020-09-23 17:00:00 19.1 14 Oeste 32 Noroeste 0 -- -- 75
2020-09-23 16:00:00 18.3 16 Oeste 27 Oeste 0.6 -- -- 79
2020-09-23 15:00:00 16.8 15 Oeste 29 Oeste 0.4 -- -- 89
2020-09-23 14:00:00 18.4 16 Sudoeste 30 Oeste 0 -- -- 77
2020-09-23 13:00:00 17.4 15 Oeste 28 Oeste 0 -- -- 80
2020-09-23 12:00:00 17.2 15 Sudoeste 28 Oeste 0 -- -- 79
2020-09-23 11:00:00 16 11 Sudoeste 19 Sudoeste 0 -- -- 89
2020-09-23 10:00:00 15.3 10 Sudoeste 18 Sudoeste 0 -- -- 87
2020-09-23 09:00:00 14.2 7 Sudoeste 15 Sudoeste 0 -- -- 92
2020-09-23 08:00:00 14.1 7 Sudoeste 13 Sudoeste 0 -- -- 91
2020-09-23 07:00:00 14.4 7 Oeste 22 Oeste 0 -- -- 92
2020-09-23 06:00:00 15 9 Oeste 15 Oeste 0 -- -- 89
2020-09-23 05:00:00 15.2 7 Oeste 16 Oeste 0 -- -- 91
2020-09-23 04:00:00 15.1 8 Oeste 15 Oeste 0 -- -- 90
2020-09-23 03:00:00 14.8 8 Sudoeste 13 Sudoeste 0 -- -- 91
2020-09-23 02:00:00 14.4 5 Sudoeste 10 Oeste 0 -- -- 87
2020-09-23 01:00:00 15 3 Oeste 8 Oeste 0 -- -- 82
2020-09-23 00:00:00 15.1 0 Calma 8 Oeste 0 -- -- 80
2020-09-22 23:00:00 16.1 3 Oeste 10 Noroeste 0 -- -- 76
2020-09-22 22:00:00 17.3 4 Noroeste 10 Noroeste 0 -- -- 71
2020-09-22 21:00:00 18.6 5 Noroeste 17 Oeste 0 -- -- 64
2020-09-22 20:00:00 19.5 8 Oeste 20 Oeste 0 -- -- 60
2020-09-22 19:00:00 20.1 13 Oeste 27 Oeste 0 -- -- 57
2020-09-22 18:00:00 20.7 14 Noroeste 31 Oeste 0 -- -- 53
2020-09-22 17:00:00 20.8 13 Oeste 26 Oeste 0 -- -- 54
2020-09-22 16:00:00 21.2 14 Noroeste 33 Noroeste 0 -- -- 52
2020-09-22 15:00:00 20.3 14 Oeste 27 Oeste 0 -- -- 53
2020-09-22 14:00:00 19.4 10 Sudoeste 23 Oeste 0 -- -- 59
2020-09-22 13:00:00 18 9 Sudoeste 19 Sudoeste 0 -- -- 64
2020-09-22 12:00:00 15.8 5 Noroeste 11 Oeste 0 -- -- 80
2020-09-22 11:00:00 13.1 3 Sudoeste 7 Sur 0 -- -- 99
2020-09-22 10:00:00 11.2 2 Sur 4 Sur 0 -- -- 100
2020-09-22 09:00:00 9.9 0 Calma 4 Sur 0 -- -- 100
2020-09-22 08:00:00 8 0 Calma 2 Este 0 -- -- 99
2020-09-22 07:00:00 7.9 0 Calma 3 Sudeste 0 -- -- 98
2020-09-22 06:00:00 8.2 0 Calma 2 Sudeste 0 -- -- 97
2020-09-22 05:00:00 8.6 0 Calma 3 Sudoeste 0 -- -- 97
2020-09-22 04:00:00 9.3 0 Calma 4 Noroeste 0 -- -- 96
2020-09-22 03:00:00 9.8 0 Calma 9 Oeste 0 -- -- 90
2020-09-22 02:00:00 9.4 4 Oeste 6 Oeste 0 -- -- 96
2020-09-22 01:00:00 9.9 0 Calma 3 Nordeste 0 -- -- 94
2020-09-22 00:00:00 10.6 2 Oeste 3 Oeste 0 -- -- 92
2020-09-21 23:00:00 11.2 2 Norte 5 Nordeste 0 -- -- 91
2020-09-21 22:00:00 12.3 0 Calma 4 Noroeste 0 -- -- 84
2020-09-21 21:00:00 16.5 2 Norte 21 Noroeste 0 -- -- 65
2020-09-21 20:00:00 19 12 Noroeste 23 Oeste 0 -- -- 52
2020-09-21 19:00:00 20.7 8 Oeste 24 Noroeste 0 -- -- 42
2020-09-21 18:00:00 21.4 12 Noroeste 23 Oeste 0 -- -- 41
2020-09-21 17:00:00 21 7 Noroeste 24 Noroeste 0 -- -- 45
2020-09-21 16:00:00 21 9 Noroeste 18 Noroeste 0 -- -- 50
2020-09-21 15:00:00 19.9 7 Oeste 22 Oeste 0 -- -- 50
2020-09-21 14:00:00 18.9 5 Norte 17 Oeste 0 -- -- 52
2020-09-21 13:00:00 17.9 7 Noroeste 15 Oeste 0 -- -- 63
2020-09-21 12:00:00 16.3 7 Oeste 14 Oeste 0 -- -- 72
2020-09-21 11:00:00 14.5 8 Oeste 13 Oeste 0 -- -- 85
2020-09-21 10:00:00 12 5 Oeste 10 Oeste 0 -- -- 99
2020-09-21 09:00:00 8.7 0 Calma 3 Nordeste 0 -- -- 100
2020-09-21 08:00:00 7.9 0 Calma 4 Sudoeste 0 -- -- 98
2020-09-21 07:00:00 7.9 0 Calma 2 Nordeste 0 -- -- 98
2020-09-21 06:00:00 8.8 0 Calma 2 Este 0 -- -- 97
2020-09-21 05:00:00 9.9 0 Calma 7 Oeste 0 -- -- 95
2020-09-21 04:00:00 11 4 Oeste 8 Oeste 0 -- -- 95
2020-09-21 03:00:00 12.3 4 Sudoeste 15 Oeste 0 -- -- 92
2020-09-21 02:00:00 12.9 6 Noroeste 11 Noroeste 0 -- -- 91
2020-09-21 01:00:00 13.3 7 Oeste 12 Noroeste 0 -- -- 88
2020-09-21 00:00:00 14 5 Oeste 15 Oeste 0 -- -- 84
2020-09-20 23:00:00 15.2 8 Oeste 17 Oeste 0 -- -- 79
2020-09-20 22:00:00 16.4 9 Oeste 22 Noroeste 0 -- -- 74
2020-09-20 21:00:00 17.3 10 Noroeste 24 Noroeste 0 -- -- 66
2020-09-20 20:00:00 19 11 Noroeste 27 Oeste 0 -- -- 64
2020-09-20 19:00:00 19.3 6 Noroeste 26 Norte 0 -- -- 72
2020-09-20 18:00:00 19.6 16 Norte 32 Oeste 0 -- -- 70
2020-09-20 17:00:00 20.4 17 Oeste 33 Oeste 0.2 -- -- 66
2020-09-20 16:00:00 19.6 13 Oeste 28 Oeste 0 -- -- 70
2020-09-20 15:00:00 18.5 14 Noroeste 32 Sudoeste 0 -- -- 79
2020-09-20 14:00:00 18.2 14 Oeste 27 Oeste 0.6 -- -- 85
2020-09-20 13:00:00 16.6 15 Oeste 26 Oeste 0 -- -- 94
2020-09-20 12:00:00 15.5 13 Sudoeste 23 Sudoeste 0 -- -- 97
2020-09-20 11:00:00 14.8 12 Sudoeste 22 Sudoeste 0.8 -- -- 96
2020-09-20 10:00:00 15 10 Sudoeste 16 Sudoeste 0 -- -- 95
2020-09-20 09:00:00 14.6 6 Sudoeste 17 Oeste 0 -- -- 97
2020-09-20 08:00:00 14.6 7 Oeste 21 Oeste 0 -- -- 96
2020-09-20 07:00:00 14.8 8 Sudoeste 14 Sudoeste 0.2 -- -- 98
2020-09-20 06:00:00 14.6 9 Sudoeste 16 Sudoeste 0.2 -- -- 99
2020-09-20 05:00:00 14.6 10 Sudoeste 20 Sudoeste 0.2 -- -- 98
2020-09-20 04:00:00 14.7 9 Sudoeste 17 Sudoeste 0.6 -- -- 98
2020-09-20 03:00:00 14.7 10 Sudoeste 20 Sur 0.8 -- -- 98
2020-09-20 02:00:00 14.8 9 Sudoeste 15 Sudoeste 0.4 -- -- 97
2020-09-20 01:00:00 15 8 Sudoeste 14 Sudoeste 0.4 -- -- 97
2020-09-20 00:00:00 15 6 Sudoeste 11 Sudoeste 0.4 -- -- 97